Time;durP1;ratioP1;P1;durP2;ratioP2;P2;SDS_P1;SDS_P2;PMS_P1;PMS_P2;Temp;Humidity;BMP_temperature;BMP_pressure;BME280_temperature;BME280_humidity;BME280_pressure;Samples;Min_cycle;Max_cycle;Signal;HPM_P1;HPM_P2
2024/01/25 00:02:26;;;;;;;;;;;8.70;80.30;;;;;;5054218;28;19974;-62
2024/01/25 00:04:59;;;;;;;;;;;8.80;80.20;;;;;;5053351;28;20437;-62
2024/01/25 00:07:33;;;;;;;;;;;8.70;80.30;;;;;;5054524;28;19929;-62
2024/01/25 00:10:07;;;;;;;;;;;8.80;80.40;;;;;;5057076;28;19946;-61
2024/01/25 00:12:34;;;;;;;;;;;8.70;80.40;;;;;;5057796;28;20796;-61
2024/01/25 00:15:07;;;;;;;;;;;8.70;80.50;;;;;;5054595;28;19937;-61
2024/01/25 00:17:40;;;;;;;;;;;8.70;80.40;;;;;;5058138;28;19925;-61
2024/01/25 00:20:13;;;;;;;;;;;8.70;80.40;;;;;;5040902;28;19925;-61
2024/01/25 00:22:47;;;;;;;;;;;8.70;80.50;;;;;;5053753;28;19925;-62
2024/01/25 00:25:20;;;;;;;;;;;8.70;80.50;;;;;;5051769;28;19968;-61
2024/01/25 00:27:53;;;;;;;;;;;8.70;80.50;;;;;;5056010;28;20439;-62
2024/01/25 00:30:26;;;;;;;;;;;8.70;80.50;;;;;;5056121;28;19939;-63
2024/01/25 00:32:59;;;;;;;;;;;8.70;80.60;;;;;;5057044;28;19933;-62
2024/01/25 00:35:32;;;;;;;;;;;8.70;80.70;;;;;;5040362;28;19928;-62
2024/01/25 00:38:01;;;;;;;;;;;8.70;80.60;;;;;;5054375;28;20379;-62
2024/01/25 00:40:34;;;;;;;;;;;8.60;80.70;;;;;;5056759;28;19924;-64
2024/01/25 00:43:08;;;;;;;;;;;8.70;80.70;;;;;;5051238;28;19935;-64
2024/01/25 00:45:42;;;;;;;;;;;8.70;80.80;;;;;;5056464;28;19933;-63
2024/01/25 00:48:16;;;;;;;;;;;8.70;80.70;;;;;;5051686;28;19929;-63
2024/01/25 00:50:49;;;;;;;;;;;8.60;80.70;;;;;;5056309;28;19924;-63
2024/01/25 00:53:24;;;;;;;;;;;8.60;80.80;;;;;;5053884;28;20015;-63
2024/01/25 00:55:58;;;;;;;;;;;8.60;80.70;;;;;;5043429;28;20335;-64
2024/01/25 00:58:32;;;;;;;;;;;8.60;80.80;;;;;;5055880;28;19928;-64
2024/01/25 01:01:05;;;;;;;;;;;8.60;80.80;;;;;;5054998;28;20334;-62
2024/01/25 01:03:39;;;;;;;;;;;8.60;80.90;;;;;;5056035;28;20341;-62
2024/01/25 01:06:12;;;;;;;;;;;8.60;80.80;;;;;;5053010;28;19929;-63
2024/01/25 01:08:46;;;;;;;;;;;8.60;80.70;;;;;;5056942;28;20304;-64
2024/01/25 01:11:20;;;;;;;;;;;8.60;80.80;;;;;;5056305;28;20008;-64
2024/01/25 01:13:53;;;;;;;;;;;8.60;80.80;;;;;;5056629;28;19939;-65
2024/01/25 01:16:26;;;;;;;;;;;8.60;80.70;;;;;;5054195;28;19952;-63
2024/01/25 01:19:05;;;;;;;;;;;8.60;80.90;;;;;;5058495;28;19928;-65
2024/01/25 01:21:38;;;;;;;;;;;8.60;80.70;;;;;;5058659;28;19955;-62
2024/01/25 01:24:13;;;;;;;;;;;8.60;80.80;;;;;;5058405;28;20080;-64
2024/01/25 01:27:05;;;;;;;;;;;8.50;80.80;;;;;;5058437;28;19932;-63
2024/01/25 01:29:38;;;;;;;;;;;8.60;80.90;;;;;;5056661;28;19929;-63
2024/01/25 01:32:11;;;;;;;;;;;8.60;80.80;;;;;;5054910;28;19976;-63
2024/01/25 01:34:44;;;;;;;;;;;8.60;80.70;;;;;;5057834;28;19940;-63
2024/01/25 01:37:17;;;;;;;;;;;8.60;80.80;;;;;;5053429;28;20386;-63
2024/01/25 01:39:52;;;;;;;;;;;8.60;80.80;;;;;;5058415;28;19968;-63
2024/01/25 01:42:25;;;;;;;;;;;8.60;80.90;;;;;;5060361;28;19925;-62
2024/01/25 01:44:58;;;;;;;;;;;8.60;80.90;;;;;;5058927;28;19950;-64
2024/01/25 01:47:31;;;;;;;;;;;8.60;81.00;;;;;;5057539;28;19925;-63
2024/01/25 01:50:04;;;;;;;;;;;8.60;80.90;;;;;;5057135;28;19925;-69
2024/01/25 01:52:37;;;;;;;;;;;8.50;81.00;;;;;;5058542;28;19928;-70
2024/01/25 01:55:11;;;;;;;;;;;8.50;81.20;;;;;;5054489;28;19975;-71
2024/01/25 01:57:45;;;;;;;;;;;8.50;81.10;;;;;;5058428;28;19935;-71
2024/01/25 02:00:20;;;;;;;;;;;8.50;81.20;;;;;;5060995;28;19935;-71
2024/01/25 02:02:53;;;;;;;;;;;8.50;81.30;;;;;;5060549;28;19956;-71
2024/01/25 02:05:26;;;;;;;;;;;8.50;81.30;;;;;;5060577;28;19936;-72
2024/01/25 02:07:59;;;;;;;;;;;8.50;81.30;;;;;;5061545;28;19974;-71
2024/01/25 02:10:33;;;;;;;;;;;8.50;81.20;;;;;;5059919;28;19936;-74
2024/01/25 02:13:07;;;;;;;;;;;8.50;81.20;;;;;;5050180;28;20022;-70
2024/01/25 02:15:40;;;;;;;;;;;8.50;81.20;;;;;;5058695;28;19943;-71
2024/01/25 02:18:13;;;;;;;;;;;8.50;81.30;;;;;;5058313;28;20322;-72
2024/01/25 02:20:46;;;;;;;;;;;8.50;81.40;;;;;;5059457;28;19924;-71
2024/01/25 02:23:20;;;;;;;;;;;8.50;81.40;;;;;;5056099;28;20015;-71
2024/01/25 02:25:54;;;;;;;;;;;8.50;81.40;;;;;;5058662;28;19928;-71
2024/01/25 02:28:27;;;;;;;;;;;8.50;81.50;;;;;;5057079;28;19929;-70
2024/01/25 02:31:00;;;;;;;;;;;8.50;81.50;;;;;;5056306;28;19935;-72
2024/01/25 02:33:34;;;;;;;;;;;8.50;81.50;;;;;;5059039;28;19928;-71
2024/01/25 02:36:00;;;;;;;;;;;8.50;81.50;;;;;;5057996;28;19929;-70
2024/01/25 02:38:35;;;;;;;;;;;8.50;81.60;;;;;;5055675;28;19940;-70
2024/01/25 02:41:09;;;;;;;;;;;8.50;81.60;;;;;;5059267;28;19967;-72
2024/01/25 02:43:42;;;;;;;;;;;8.50;81.70;;;;;;5057513;28;19995;-70
2024/01/25 02:46:15;;;;;;;;;;;8.50;81.60;;;;;;5057208;28;19928;-72
2024/01/25 02:48:48;;;;;;;;;;;8.50;81.60;;;;;;5058088;28;19937;-72
2024/01/25 02:51:21;;;;;;;;;;;8.50;81.70;;;;;;5056721;28;19932;-73
2024/01/25 02:53:55;;;;;;;;;;;8.50;81.70;;;;;;5057054;28;19933;-72
2024/01/25 02:56:34;;;;;;;;;;;8.50;81.70;;;;;;5054669;28;19959;-71
2024/01/25 02:59:08;;;;;;;;;;;8.50;81.80;;;;;;5056179;28;19970;-61
2024/01/25 03:01:42;;;;;;;;;;;8.60;81.80;;;;;;5057532;28;19974;-62
2024/01/25 03:04:15;;;;;;;;;;;8.50;81.90;;;;;;5055714;28;19939;-63
2024/01/25 03:06:48;;;;;;;;;;;8.50;81.80;;;;;;5053885;28;20442;-60
2024/01/25 03:09:23;;;;;;;;;;;8.50;81.90;;;;;;5056511;28;19932;-61
2024/01/25 03:11:57;;;;;;;;;;;8.50;81.90;;;;;;5058260;28;19929;-61
2024/01/25 03:14:30;;;;;;;;;;;8.50;82.00;;;;;;5070138;28;19978;-62
2024/01/25 03:17:03;;;;;;;;;;;8.50;82.00;;;;;;5070598;28;19935;-61
2024/01/25 03:19:36;;;;;;;;;;;8.50;82.10;;;;;;5058086;28;20015;-62
2024/01/25 03:22:09;;;;;;;;;;;8.40;82.20;;;;;;5054821;28;19935;-62
2024/01/25 03:24:43;;;;;;;;;;;8.40;82.20;;;;;;5056773;28;19928;-60
2024/01/25 03:27:17;;;;;;;;;;;8.40;82.20;;;;;;5056694;28;19990;-63
2024/01/25 03:29:50;;;;;;;;;;;8.40;82.30;;;;;;5055908;28;19925;-61
2024/01/25 03:32:23;;;;;;;;;;;8.40;82.30;;;;;;5057174;28;19947;-62
2024/01/25 03:34:56;;;;;;;;;;;8.40;82.30;;;;;;5056857;28;19933;-62
2024/01/25 03:37:29;;;;;;;;;;;8.40;82.50;;;;;;5054741;28;19978;-62
2024/01/25 03:40:04;;;;;;;;;;;8.40;82.40;;;;;;5054238;28;19924;-60
2024/01/25 03:42:38;;;;;;;;;;;8.30;82.40;;;;;;5058727;28;19924;-61
2024/01/25 03:45:11;;;;;;;;;;;8.30;82.60;;;;;;5048796;28;19951;-60
2024/01/25 03:47:44;;;;;;;;;;;8.30;82.60;;;;;;5050502;28;19948;-62
2024/01/25 03:50:17;;;;;;;;;;;8.20;82.60;;;;;;5056562;28;19939;-60
2024/01/25 03:52:50;;;;;;;;;;;8.20;82.70;;;;;;5057279;28;20017;-62
2024/01/25 03:55:24;;;;;;;;;;;8.10;82.80;;;;;;5055957;28;19925;-61
2024/01/25 03:57:58;;;;;;;;;;;8.00;82.90;;;;;;5054527;28;19960;-61
2024/01/25 04:00:31;;;;;;;;;;;8.00;83.20;;;;;;5052028;28;20019;-61
2024/01/25 04:03:04;;;;;;;;;;;8.00;83.10;;;;;;5057907;28;19924;-62
2024/01/25 04:05:37;;;;;;;;;;;8.00;83.20;;;;;;5054180;28;20437;-62
2024/01/25 04:08:10;;;;;;;;;;;8.00;83.30;;;;;;5054040;28;19931;-61
2024/01/25 04:10:44;;;;;;;;;;;8.00;83.20;;;;;;5059175;28;19924;-80
2024/01/25 04:13:18;;;;;;;;;;;8.00;83.20;;;;;;5055487;28;19929;-78
2024/01/25 04:15:51;;;;;;;;;;;7.90;83.30;;;;;;5056207;28;19928;-77
2024/01/25 04:18:25;;;;;;;;;;;7.80;83.40;;;;;;5056840;28;20015;-77
2024/01/25 04:20:58;;;;;;;;;;;7.90;83.50;;;;;;5056906;28;19928;-80
2024/01/25 04:23:31;;;;;;;;;;;7.80;83.50;;;;;;5055406;28;19943;-78
2024/01/25 04:26:05;;;;;;;;;;;7.80;83.50;;;;;;5056472;28;20037;-77
2024/01/25 04:28:39;;;;;;;;;;;7.80;83.50;;;;;;5058528;28;19975;-78
2024/01/25 04:31:12;;;;;;;;;;;7.70;83.70;;;;;;5054398;28;20449;-77
2024/01/25 04:33:45;;;;;;;;;;;7.80;83.70;;;;;;5059536;28;20395;-77
2024/01/25 04:36:18;;;;;;;;;;;7.70;83.70;;;;;;5058449;28;20265;-77
2024/01/25 04:38:51;;;;;;;;;;;7.70;83.70;;;;;;5055810;28;19931;-78
2024/01/25 04:41:25;;;;;;;;;;;7.70;83.70;;;;;;5048299;28;19925;-77
2024/01/25 04:43:59;;;;;;;;;;;7.70;83.70;;;;;;5057474;28;19947;-78
2024/01/25 04:46:26;;;;;;;;;;;7.60;84.00;;;;;;5057174;28;19935;-77
2024/01/25 04:49:00;;;;;;;;;;;7.70;84.10;;;;;;5051074;28;19964;-78
2024/01/25 04:51:33;;;;;;;;;;;7.60;84.00;;;;;;5056331;28;20397;-77
2024/01/25 04:54:06;;;;;;;;;;;7.60;84.20;;;;;;5059918;28;19929;-77
2024/01/25 04:56:41;;;;;;;;;;;7.60;84.20;;;;;;5060025;28;19935;-78
2024/01/25 04:59:08;;;;;;;;;;;7.50;84.40;;;;;;5059407;28;19970;-78
2024/01/25 05:01:47;;;;;;;;;;;7.50;84.40;;;;;;5055464;28;20067;-75
2024/01/25 05:04:21;;;;;;;;;;;7.60;84.50;;;;;;5059906;28;19924;-77
2024/01/25 05:06:54;;;;;;;;;;;7.50;84.40;;;;;;5059834;28;19924;-78
2024/01/25 05:09:27;;;;;;;;;;;7.50;84.50;;;;;;5061378;28;19931;-78
2024/01/25 05:12:02;;;;;;;;;;;7.50;84.50;;;;;;5060153;28;20015;-78
2024/01/25 05:14:35;;;;;;;;;;;7.50;84.60;;;;;;5060513;28;19939;-77
2024/01/25 05:17:08;;;;;;;;;;;7.50;84.50;;;;;;5057710;28;20278;-77
2024/01/25 05:19:41;;;;;;;;;;;7.50;84.60;;;;;;5060946;28;19924;-71
2024/01/25 05:22:14;;;;;;;;;;;7.50;84.50;;;;;;5055004;28;20325;-72
2024/01/25 05:24:47;;;;;;;;;;;7.50;84.50;;;;;;5055534;28;19935;-71
2024/01/25 05:27:21;;;;;;;;;;;7.50;84.60;;;;;;5059154;28;19924;-72
2024/01/25 05:29:55;;;;;;;;;;;7.50;84.70;;;;;;5058842;28;19954;-72
2024/01/25 05:32:28;;;;;;;;;;;7.50;84.70;;;;;;5051787;28;19936;-72
2024/01/25 05:35:01;;;;;;;;;;;7.50;84.70;;;;;;5057239;28;19932;-72
2024/01/25 05:37:34;;;;;;;;;;;7.50;84.70;;;;;;5060277;28;19934;-71
2024/01/25 05:40:07;;;;;;;;;;;7.40;84.70;;;;;;5056845;28;19940;-73
2024/01/25 05:42:42;;;;;;;;;;;7.40;84.70;;;;;;5060838;28;19971;-72
2024/01/25 05:45:19;;;;;;;;;;;7.30;84.90;;;;;;5059059;28;19934;-71
2024/01/25 05:47:52;;;;;;;;;;;7.20;84.90;;;;;;5057995;28;20030;-70
2024/01/25 05:50:25;;;;;;;;;;;7.20;85.10;;;;;;5059177;28;19929;-72
2024/01/25 05:52:58;;;;;;;;;;;7.20;85.00;;;;;;5057318;28;20375;-71
2024/01/25 05:55:31;;;;;;;;;;;7.20;85.00;;;;;;5058856;28;19962;-72
2024/01/25 05:58:05;;;;;;;;;;;7.20;85.00;;;;;;5059501;28;19929;-71
2024/01/25 06:00:39;;;;;;;;;;;7.20;84.90;;;;;;5053331;28;19928;-72
2024/01/25 06:03:12;;;;;;;;;;;7.20;84.80;;;;;;5057552;28;20581;-72
2024/01/25 06:05:45;;;;;;;;;;;7.20;84.80;;;;;;5056845;28;19925;-72
2024/01/25 06:08:18;;;;;;;;;;;7.10;84.60;;;;;;5057275;28;19979;-71
2024/01/25 06:10:51;;;;;;;;;;;7.10;84.90;;;;;;5058921;28;19931;-72
2024/01/25 06:13:25;;;;;;;;;;;7.10;84.90;;;;;;5058750;28;19932;-71
2024/01/25 06:15:59;;;;;;;;;;;7.10;84.80;;;;;;5057080;28;19932;-71
2024/01/25 06:18:32;;;;;;;;;;;7.00;84.80;;;;;;5055315;28;19925;-71
2024/01/25 06:21:05;;;;;;;;;;;7.00;84.70;;;;;;5060071;28;19929;-71
2024/01/25 06:23:38;;;;;;;;;;;7.00;84.70;;;;;;5058352;28;19924;-71
2024/01/25 06:26:05;;;;;;;;;;;7.00;84.70;;;;;;5055450;28;19951;-71
2024/01/25 06:28:40;;;;;;;;;;;7.00;84.60;;;;;;5059929;28;19924;-60
2024/01/25 06:31:14;;;;;;;;;;;6.90;84.80;;;;;;5057172;28;19935;-60
2024/01/25 06:33:50;;;;;;;;;;;6.90;84.90;;;;;;5054120;28;19929;-61
2024/01/25 06:36:23;;;;;;;;;;;6.90;84.90;;;;;;5057826;28;19924;-60
2024/01/25 06:38:56;;;;;;;;;;;6.90;84.80;;;;;;5062468;28;19932;-61
2024/01/25 06:41:29;;;;;;;;;;;6.90;84.90;;;;;;5051704;28;19928;-60
2024/01/25 06:44:03;;;;;;;;;;;6.90;84.90;;;;;;5056271;28;19929;-61
2024/01/25 06:46:37;;;;;;;;;;;6.90;84.80;;;;;;5055413;28;19940;-60
2024/01/25 06:49:10;;;;;;;;;;;6.90;84.90;;;;;;5058136;28;19924;-62
2024/01/25 06:51:43;;;;;;;;;;;6.90;84.90;;;;;;5058825;28;19974;-61
2024/01/25 06:54:16;;;;;;;;;;;6.90;84.80;;;;;;5055200;28;19978;-61
2024/01/25 06:56:51;;;;;;;;;;;6.90;84.70;;;;;;5057614;28;19924;-61
2024/01/25 06:59:25;;;;;;;;;;;6.80;84.60;;;;;;5053145;28;19937;-60
2024/01/25 07:02:00;;;;;;;;;;;6.70;84.90;;;;;;5058615;28;19936;-62
2024/01/25 07:04:33;;;;;;;;;;;6.70;85.10;;;;;;5056119;28;19924;-62
2024/01/25 07:07:06;;;;;;;;;;;6.70;85.30;;;;;;5053579;28;20016;-62
2024/01/25 07:09:39;;;;;;;;;;;6.70;85.30;;;;;;5054358;28;19947;-61
2024/01/25 07:12:12;;;;;;;;;;;6.70;85.30;;;;;;5055874;28;19932;-62
2024/01/25 07:14:46;;;;;;;;;;;6.70;85.40;;;;;;5054401;28;19929;-62
2024/01/25 07:17:20;;;;;;;;;;;6.70;85.30;;;;;;5057878;28;20020;-62
2024/01/25 07:19:53;;;;;;;;;;;6.60;85.20;;;;;;5058494;28;19928;-62
2024/01/25 07:22:26;;;;;;;;;;;6.60;85.50;;;;;;5055748;28;19929;-60
2024/01/25 07:24:59;;;;;;;;;;;6.60;85.40;;;;;;5050520;28;20002;-62
2024/01/25 07:27:32;;;;;;;;;;;6.60;85.70;;;;;;5051880;28;20445;-61
2024/01/25 07:30:08;;;;;;;;;;;6.70;85.70;;;;;;5054860;28;19976;-60
2024/01/25 07:32:42;;;;;;;;;;;6.60;85.80;;;;;;5054653;28;19929;-61
2024/01/25 07:35:15;;;;;;;;;;;6.70;85.80;;;;;;5052332;28;19924;-60
2024/01/25 07:37:54;;;;;;;;;;;6.70;85.70;;;;;;5056558;28;19936;-62
2024/01/25 07:40:28;;;;;;;;;;;6.70;85.80;;;;;;5054731;28;19968;-60
2024/01/25 07:43:01;;;;;;;;;;;6.70;85.70;;;;;;5058283;28;19925;-61
2024/01/25 07:45:35;;;;;;;;;;;6.70;85.70;;;;;;5056985;28;19936;-63
2024/01/25 07:48:09;;;;;;;;;;;6.70;85.70;;;;;;5055957;28;20007;-63
2024/01/25 07:50:42;;;;;;;;;;;6.70;85.60;;;;;;5058995;28;20334;-61
2024/01/25 07:53:16;;;;;;;;;;;6.60;85.80;;;;;;5057681;28;19931;-62
2024/01/25 07:55:43;;;;;;;;;;;6.60;85.80;;;;;;5055249;28;19925;-62
2024/01/25 07:58:16;;;;;;;;;;;6.60;85.80;;;;;;5056880;28;19925;-62
2024/01/25 08:00:51;;;;;;;;;;;6.60;85.70;;;;;;5055306;28;20395;-62
2024/01/25 08:03:24;;;;;;;;;;;6.60;85.70;;;;;;5055586;28;19928;-61
2024/01/25 08:05:57;;;;;;;;;;;6.60;85.80;;;;;;5057097;28;19964;-63
2024/01/25 08:08:30;;;;;;;;;;;6.60;85.80;;;;;;5056917;28;19924;-63
2024/01/25 08:11:04;;;;;;;;;;;6.60;86.00;;;;;;5056607;28;19931;-61
2024/01/25 08:13:37;;;;;;;;;;;6.60;86.00;;;;;;5056535;28;19929;-63
2024/01/25 08:16:12;;;;;;;;;;;6.60;86.10;;;;;;5055663;28;20260;-62
2024/01/25 08:18:45;;;;;;;;;;;6.70;86.00;;;;;;5056115;28;19985;-63
2024/01/25 08:21:18;;;;;;;;;;;6.70;85.90;;;;;;5055962;28;19924;-62
2024/01/25 08:23:51;;;;;;;;;;;6.80;85.90;;;;;;5056512;28;19924;-62
2024/01/25 08:26:24;;;;;;;;;;;6.80;85.90;;;;;;5057993;28;20019;-62
2024/01/25 08:28:57;;;;;;;;;;;6.80;85.80;;;;;;5058018;28;19982;-60
2024/01/25 08:31:31;;;;;;;;;;;6.80;85.80;;;;;;5062570;28;19947;-61
2024/01/25 08:34:05;;;;;;;;;;;6.90;85.80;;;;;;5058930;28;19928;-62
2024/01/25 08:36:38;;;;;;;;;;;6.90;85.80;;;;;;5060005;28;19955;-65
2024/01/25 08:39:11;;;;;;;;;;;6.90;85.80;;;;;;5058382;28;19935;-62
2024/01/25 08:41:45;;;;;;;;;;;6.90;85.80;;;;;;5060965;28;19928;-61
2024/01/25 08:44:18;;;;;;;;;;;6.90;85.80;;;;;;5060955;28;19925;-61
2024/01/25 08:46:52;;;;;;;;;;;7.00;85.80;;;;;;5058803;28;19961;-61
2024/01/25 08:49:26;;;;;;;;;;;7.00;85.80;;;;;;5060998;28;19929;-61
2024/01/25 08:51:59;;;;;;;;;;;7.00;85.90;;;;;;5060512;28;20031;-61
2024/01/25 08:54:32;;;;;;;;;;;7.00;86.00;;;;;;5060082;28;19935;-62
2024/01/25 08:56:59;;;;;;;;;;;7.00;85.80;;;;;;5060070;28;20379;-61
2024/01/25 08:59:32;;;;;;;;;;;7.00;86.10;;;;;;5058558;28;20877;-62
2024/01/25 09:02:08;;;;;;;;;;;7.10;86.00;;;;;;5059098;28;19970;-61
2024/01/25 09:04:43;;;;;;;;;;;7.10;86.00;;;;;;5058861;28;19925;-62
2024/01/25 09:07:16;;;;;;;;;;;7.10;85.90;;;;;;5060338;28;20019;-61
2024/01/25 09:09:49;;;;;;;;;;;7.20;85.70;;;;;;5059544;28;19928;-62
2024/01/25 09:12:22;;;;;;;;;;;7.20;85.70;;;;;;5059756;28;19951;-59
2024/01/25 09:14:55;;;;;;;;;;;7.30;85.90;;;;;;5058700;28;19932;-61
2024/01/25 09:17:29;;;;;;;;;;;7.30;85.60;;;;;;5060347;28;20382;-62
2024/01/25 09:20:04;;;;;;;;;;;7.30;85.80;;;;;;5054825;28;19979;-63
2024/01/25 09:22:37;;;;;;;;;;;7.40;85.80;;;;;;5059927;28;19936;-61
2024/01/25 09:25:10;;;;;;;;;;;7.40;85.60;;;;;;5060263;28;19939;-62
2024/01/25 09:27:44;;;;;;;;;;;7.50;85.50;;;;;;5060759;28;20008;-62
2024/01/25 09:30:17;;;;;;;;;;;7.50;85.60;;;;;;5056993;28;19936;-62
2024/01/25 09:32:57;;;;;;;;;;;7.60;85.50;;;;;;5060241;28;19931;-62
2024/01/25 09:35:31;;;;;;;;;;;7.70;85.20;;;;;;5060535;28;19987;-61
2024/01/25 09:38:04;;;;;;;;;;;7.80;85.20;;;;;;5058333;28;19955;-62
2024/01/25 09:40:37;;;;;;;;;;;7.80;84.90;;;;;;5059322;28;20019;-62
2024/01/25 09:43:04;;;;;;;;;;;8.00;84.80;;;;;;5060662;28;19932;-63
2024/01/25 09:45:37;;;;;;;;;;;8.00;84.70;;;;;;5060278;28;20376;-62
2024/01/25 09:48:11;;;;;;;;;;;8.10;84.60;;;;;;5053293;28;20307;-62
2024/01/25 09:50:46;;;;;;;;;;;8.10;84.40;;;;;;5060781;28;20007;-62
2024/01/25 09:53:22;;;;;;;;;;;8.20;84.20;;;;;;5057938;28;19932;-63
2024/01/25 09:55:58;;;;;;;;;;;8.20;83.90;;;;;;5059213;28;19931;-61
2024/01/25 09:58:37;;;;;;;;;;;8.20;83.90;;;;;;5061375;28;19925;-63
2024/01/25 10:01:11;;;;;;;;;;;8.30;83.60;;;;;;5058324;28;19929;-61
2024/01/25 10:03:46;;;;;;;;;;;8.30;83.60;;;;;;5055363;28;19947;-61
2024/01/25 10:06:20;;;;;;;;;;;8.30;83.50;;;;;;5059237;28;19928;-61
2024/01/25 10:08:53;;;;;;;;;;;8.40;83.40;;;;;;5059532;28;19925;-61
2024/01/25 10:11:29;;;;;;;;;;;8.40;83.30;;;;;;5058103;28;20019;-63
2024/01/25 10:14:03;;;;;;;;;;;8.50;83.30;;;;;;5059510;28;19928;-62
2024/01/25 10:16:36;;;;;;;;;;;8.50;83.10;;;;;;5056846;28;20013;-62
2024/01/25 10:19:10;;;;;;;;;;;8.60;83.00;;;;;;5058567;28;19928;-63
2024/01/25 10:21:44;;;;;;;;;;;8.60;82.90;;;;;;5059335;28;19968;-62
2024/01/25 10:24:17;;;;;;;;;;;8.60;82.80;;;;;;5057508;28;19928;-62
2024/01/25 10:26:44;;;;;;;;;;;8.60;82.80;;;;;;5058586;28;19948;-61
2024/01/25 10:29:17;;;;;;;;;;;8.60;82.70;;;;;;5056035;28;20435;-61
2024/01/25 10:31:50;;;;;;;;;;;8.70;82.50;;;;;;5058564;28;20331;-62
2024/01/25 10:34:26;;;;;;;;;;;8.80;82.30;;;;;;5072892;28;20334;-62
2024/01/25 10:36:59;;;;;;;;;;;8.80;82.00;;;;;;5057874;28;19924;-62
2024/01/25 10:39:32;;;;;;;;;;;8.90;81.90;;;;;;5052316;28;19931;-60
2024/01/25 10:42:06;;;;;;;;;;;8.90;81.70;;;;;;5058856;28;19994;-62
2024/01/25 10:44:39;;;;;;;;;;;8.90;81.50;;;;;;5060257;28;19933;-62
2024/01/25 10:47:12;;;;;;;;;;;8.90;81.50;;;;;;5055634;28;19928;-62
2024/01/25 10:49:49;;;;;;;;;;;8.90;81.40;;;;;;5059162;28;19932;-61
2024/01/25 10:52:22;;;;;;;;;;;8.90;81.20;;;;;;5057724;28;19932;-63
2024/01/25 10:54:55;;;;;;;;;;;9.00;81.20;;;;;;5058134;28;19924;-61
2024/01/25 10:57:35;;;;;;;;;;;9.00;81.10;;;;;;5056993;28;19933;-60
2024/01/25 11:00:10;;;;;;;;;;;9.00;81.10;;;;;;5053542;28;20430;-61
2024/01/25 11:02:43;;;;;;;;;;;9.20;80.70;;;;;;5058108;28;20023;-62
2024/01/25 11:05:19;;;;;;;;;;;9.20;80.40;;;;;;5057602;28;20655;-62
2024/01/25 11:07:54;;;;;;;;;;;9.30;80.10;;;;;;5060534;28;20363;-62
2024/01/25 11:10:28;;;;;;;;;;;9.30;79.80;;;;;;5056289;28;20379;-72
2024/01/25 11:13:03;;;;;;;;;;;9.40;79.70;;;;;;5056876;28;19925;-70
2024/01/25 11:15:38;;;;;;;;;;;9.40;79.60;;;;;;5058101;28;19947;-71
2024/01/25 11:18:13;;;;;;;;;;;9.40;79.50;;;;;;5055493;28;19929;-71
2024/01/25 11:20:49;;;;;;;;;;;9.50;79.20;;;;;;5058518;28;19928;-72
2024/01/25 11:23:22;;;;;;;;;;;9.50;78.80;;;;;;5058289;28;19982;-72
2024/01/25 11:25:55;;;;;;;;;;;9.40;79.30;;;;;;5056592;28;20021;-71
2024/01/25 11:28:28;;;;;;;;;;;9.40;79.00;;;;;;5057298;28;20011;-72
2024/01/25 11:31:01;;;;;;;;;;;9.40;79.10;;;;;;5053846;28;19939;-72
2024/01/25 11:33:34;;;;;;;;;;;9.50;78.90;;;;;;5057656;28;19935;-73
2024/01/25 11:36:23;;;;;;;;;;;9.50;78.80;;;;;;5058200;28;21261;-72
2024/01/25 11:39:03;;;;;;;;;;;9.50;78.90;;;;;;5056842;28;19925;-72
2024/01/25 11:41:36;;;;;;;;;;;9.60;78.80;;;;;;5047644;28;19932;-73
2024/01/25 11:44:10;;;;;;;;;;;9.60;78.50;;;;;;5057885;28;19935;-71
2024/01/25 11:46:43;;;;;;;;;;;9.60;78.10;;;;;;5053320;28;19933;-73
2024/01/25 11:49:16;;;;;;;;;;;9.60;78.00;;;;;;5056964;28;20779;-72
2024/01/25 11:51:50;;;;;;;;;;;9.60;77.70;;;;;;5058028;28;19968;-71
2024/01/25 11:54:24;;;;;;;;;;;9.60;77.40;;;;;;5055633;28;20008;-72
2024/01/25 11:56:57;;;;;;;;;;;9.70;77.10;;;;;;5057061;28;19924;-71
2024/01/25 11:59:30;;;;;;;;;;;9.70;77.00;;;;;;5055928;28;20017;-72
2024/01/25 12:02:03;;;;;;;;;;;9.80;76.70;;;;;;5058519;28;20033;-72
2024/01/25 12:04:37;;;;;;;;;;;9.90;76.40;;;;;;5053830;28;20031;-73
2024/01/25 12:07:11;;;;;;;;;;;9.90;75.80;;;;;;5056059;28;19935;-72
2024/01/25 12:09:45;;;;;;;;;;;9.90;75.40;;;;;;5058627;28;20007;-73
2024/01/25 12:12:18;;;;;;;;;;;9.90;74.60;;;;;;5053531;28;20406;-72
2024/01/25 12:14:52;;;;;;;;;;;9.90;75.00;;;;;;5071042;28;19928;-72
2024/01/25 12:17:27;;;;;;;;;;;9.90;74.80;;;;;;5056793;28;19952;-72
2024/01/25 12:20:00;;;;;;;;;;;9.90;74.30;;;;;;5054516;28;19924;-72
2024/01/25 12:22:35;;;;;;;;;;;9.90;74.90;;;;;;5058490;28;19944;-72
2024/01/25 12:25:12;;;;;;;;;;;9.90;74.90;;;;;;5057395;28;19925;-73
2024/01/25 12:27:49;;;;;;;;;;;9.80;75.10;;;;;;5055536;28;19929;-73
2024/01/25 12:30:22;;;;;;;;;;;9.80;75.40;;;;;;5055549;28;19928;-74
2024/01/25 12:32:55;;;;;;;;;;;9.80;75.30;;;;;;5056599;28;19959;-73
2024/01/25 12:35:28;;;;;;;;;;;9.80;75.30;;;;;;5058017;28;19928;-73
2024/01/25 12:38:02;;;;;;;;;;;9.90;74.90;;;;;;5057098;28;19928;-72
2024/01/25 12:40:36;;;;;;;;;;;9.90;75.20;;;;;;5056127;28;19964;-71
2024/01/25 12:43:09;;;;;;;;;;;9.90;75.20;;;;;;5056883;28;19925;-71
2024/01/25 12:45:42;;;;;;;;;;;9.80;75.10;;;;;;5055391;28;19954;-73
2024/01/25 12:48:15;;;;;;;;;;;9.80;75.40;;;;;;5056173;28;19964;-72
2024/01/25 12:50:48;;;;;;;;;;;9.80;75.20;;;;;;5054462;28;19925;-73
2024/01/25 12:53:23;;;;;;;;;;;9.80;75.20;;;;;;5053762;28;19933;-73
2024/01/25 12:55:56;;;;;;;;;;;9.90;75.40;;;;;;5056452;28;19932;-72
2024/01/25 12:58:29;;;;;;;;;;;10.00;74.90;;;;;;5052827;28;20091;-71
2024/01/25 13:01:02;;;;;;;;;;;10.00;74.90;;;;;;5051338;28;19936;-72
2024/01/25 13:03:35;;;;;;;;;;;10.10;75.00;;;;;;5055643;28;19939;-73
2024/01/25 13:06:08;;;;;;;;;;;10.10;74.40;;;;;;5053084;28;20013;-73
2024/01/25 13:08:42;;;;;;;;;;;10.10;74.50;;;;;;5054986;28;20387;-73
2024/01/25 13:11:16;;;;;;;;;;;10.10;74.10;;;;;;5052913;28;19928;-72
2024/01/25 13:13:50;;;;;;;;;;;10.10;74.30;;;;;;5060764;28;20376;-72
2024/01/25 13:16:24;;;;;;;;;;;10.10;73.30;;;;;;5059079;28;19928;-73
2024/01/25 13:18:57;;;;;;;;;;;10.10;73.90;;;;;;5058557;28;20011;-72
2024/01/25 13:21:30;;;;;;;;;;;10.10;73.80;;;;;;5056380;28;20387;-72
2024/01/25 13:24:05;;;;;;;;;;;10.10;73.50;;;;;;5060055;28;19982;-72
2024/01/25 13:26:38;;;;;;;;;;;10.20;73.40;;;;;;5059059;28;19971;-72
2024/01/25 13:29:12;;;;;;;;;;;10.20;73.10;;;;;;5057811;28;19935;-63
2024/01/25 13:31:47;;;;;;;;;;;10.20;73.40;;;;;;5059565;28;19990;-60
2024/01/25 13:34:14;;;;;;;;;;;10.10;73.00;;;;;;5058825;28;19928;-63
2024/01/25 13:36:47;;;;;;;;;;;10.20;72.80;;;;;;5060806;28;19925;-62
2024/01/25 13:39:21;;;;;;;;;;;10.10;73.00;;;;;;5055940;28;20391;-62
2024/01/25 13:41:56;;;;;;;;;;;10.10;72.90;;;;;;5059237;28;19936;-61
2024/01/25 13:44:29;;;;;;;;;;;10.00;72.70;;;;;;5061248;28;19925;-61
2024/01/25 13:47:02;;;;;;;;;;;10.00;72.60;;;;;;5057846;28;19928;-63
2024/01/25 13:49:35;;;;;;;;;;;10.00;73.00;;;;;;5058781;28;19928;-63
2024/01/25 13:52:17;;;;;;;;;;;9.90;73.00;;;;;;5072487;28;20296;-61
2024/01/25 13:54:52;;;;;;;;;;;10.00;73.10;;;;;;5055970;28;20355;-62
2024/01/25 13:57:25;;;;;;;;;;;9.90;73.60;;;;;;5058958;28;20858;-63
2024/01/25 13:59:58;;;;;;;;;;;9.90;73.60;;;;;;5057200;28;19933;-62
2024/01/25 14:02:32;;;;;;;;;;;9.90;73.30;;;;;;5056797;28;19928;-61
2024/01/25 14:05:06;;;;;;;;;;;9.90;73.50;;;;;;5055599;28;20378;-62
2024/01/25 14:07:46;;;;;;;;;;;9.90;73.60;;;;;;5061389;28;19925;-61
2024/01/25 14:10:20;;;;;;;;;;;9.90;73.80;;;;;;5057804;28;20007;-62
2024/01/25 14:12:54;;;;;;;;;;;9.80;74.30;;;;;;5058922;28;20303;-62
2024/01/25 14:15:27;;;;;;;;;;;9.80;74.10;;;;;;5051364;28;19982;-62
2024/01/25 14:18:00;;;;;;;;;;;9.80;74.20;;;;;;5057715;28;19955;-62
2024/01/25 14:20:34;;;;;;;;;;;9.80;74.50;;;;;;5057278;28;19932;-63
2024/01/25 14:23:07;;;;;;;;;;;9.70;74.40;;;;;;5057486;28;19925;-62
2024/01/25 14:25:41;;;;;;;;;;;9.70;74.60;;;;;;5058042;28;19925;-62
2024/01/25 14:28:15;;;;;;;;;;;9.70;74.50;;;;;;5058615;28;20261;-62
2024/01/25 14:30:48;;;;;;;;;;;9.70;74.70;;;;;;5058988;28;19952;-62
2024/01/25 14:33:21;;;;;;;;;;;9.70;74.90;;;;;;5052526;28;20015;-62
2024/01/25 14:35:54;;;;;;;;;;;9.70;74.70;;;;;;5058616;28;19979;-61
2024/01/25 14:38:27;;;;;;;;;;;9.70;74.80;;;;;;5059687;28;19959;-62
2024/01/25 14:41:01;;;;;;;;;;;9.70;75.10;;;;;;5059119;28;19932;-63
2024/01/25 14:43:35;;;;;;;;;;;9.70;75.20;;;;;;5060863;28;19928;-61
2024/01/25 14:46:08;;;;;;;;;;;9.70;75.30;;;;;;5056865;28;20007;-63
2024/01/25 14:48:41;;;;;;;;;;;9.60;75.20;;;;;;5057327;28;20027;-62
2024/01/25 14:51:14;;;;;;;;;;;9.60;75.50;;;;;;5051812;28;20426;-62
2024/01/25 14:53:47;;;;;;;;;;;9.60;75.30;;;;;;5057625;28;19928;-62
2024/01/25 14:56:21;;;;;;;;;;;9.60;75.50;;;;;;5057205;28;19964;-62
2024/01/25 14:58:55;;;;;;;;;;;9.50;75.60;;;;;;5055888;28;19931;-62
2024/01/25 15:01:30;;;;;;;;;;;9.50;76.00;;;;;;5055369;28;19925;-62
2024/01/25 15:04:03;;;;;;;;;;;9.50;76.00;;;;;;5057925;28;19924;-62
2024/01/25 15:06:30;;;;;;;;;;;9.50;75.90;;;;;;5056189;28;19928;-62